sensor_id;sensor_type;location;lat;lon;timestamp;pressure;altitude;pressure_sealevel;temperature
65316;BMP280;51920;53.952;10.292;2023-01-24T00:01:17;103570.09;;;2.40
65316;BMP280;51920;53.952;10.292;2023-01-24T00:03:42;103583.56;;;2.45
65316;BMP280;51920;53.952;10.292;2023-01-24T00:06:08;103590.31;;;2.47
65316;BMP280;51920;53.952;10.292;2023-01-24T00:08:33;103595.72;;;2.53
65316;BMP280;51920;53.952;10.292;2023-01-24T00:11:05;103581.78;;;2.50
65316;BMP280;51920;53.952;10.292;2023-01-24T00:13:31;103585.03;;;2.53
65316;BMP280;51920;53.952;10.292;2023-01-24T00:16:08;103580.97;;;2.50
65316;BMP280;51920;53.952;10.292;2023-01-24T00:18:34;103582.34;;;2.53
65316;BMP280;51920;53.952;10.292;2023-01-24T00:21:04;103575.03;;;2.48
65316;BMP280;51920;53.952;10.292;2023-01-24T00:23:30;103577.97;;;2.46
65316;BMP280;51920;53.952;10.292;2023-01-24T00:25:55;103576.13;;;2.47
65316;BMP280;51920;53.952;10.292;2023-01-24T00:28:20;103583.94;;;2.54
65316;BMP280;51920;53.952;10.292;2023-01-24T00:30:46;103573.75;;;2.50
65316;BMP280;51920;53.952;10.292;2023-01-24T00:33:11;103566.22;;;2.47
65316;BMP280;51920;53.952;10.292;2023-01-24T00:35:36;103576.13;;;2.47
65316;BMP280;51920;53.952;10.292;2023-01-24T00:38:02;103569.13;;;2.46
65316;BMP280;51920;53.952;10.292;2023-01-24T00:40:28;103567.03;;;2.48
65316;BMP280;51920;53.952;10.292;2023-01-24T00:42:53;103564.81;;;2.45
65316;BMP280;51920;53.952;10.292;2023-01-24T00:45:18;103540.63;;;2.35
65316;BMP280;51920;53.952;10.292;2023-01-24T00:47:43;103549.34;;;2.47
65316;BMP280;51920;53.952;10.292;2023-01-24T00:50:09;103556.56;;;2.46
65316;BMP280;51920;53.952;10.292;2023-01-24T00:52:35;103551.72;;;2.43
65316;BMP280;51920;53.952;10.292;2023-01-24T00:55:00;103562.47;;;2.48
65316;BMP280;51920;53.952;10.292;2023-01-24T00:57:26;103557.31;;;2.42
65316;BMP280;51920;53.952;10.292;2023-01-24T00:59:51;103561.59;;;2.43
65316;BMP280;51920;53.952;10.292;2023-01-24T01:02:17;103552.22;;;2.40
65316;BMP280;51920;53.952;10.292;2023-01-24T01:04:42;103566.22;;;2.47
65316;BMP280;51920;53.952;10.292;2023-01-24T01:07:07;103539.78;;;2.34
65316;BMP280;51920;53.952;10.292;2023-01-24T01:09:33;103547.34;;;2.37
65316;BMP280;51920;53.952;10.292;2023-01-24T01:11:58;103550.34;;;2.41
65316;BMP280;51920;53.952;10.292;2023-01-24T01:14:23;103554.88;;;2.40
65316;BMP280;51920;53.952;10.292;2023-01-24T01:16:49;103537.69;;;2.36
65316;BMP280;51920;53.952;10.292;2023-01-24T01:19:14;103536.31;;;2.34
65316;BMP280;51920;53.952;10.292;2023-01-24T01:21:39;103531.91;;;2.22
65316;BMP280;51920;53.952;10.292;2023-01-24T01:24:05;103530.59;;;2.25
65316;BMP280;51920;53.952;10.292;2023-01-24T01:26:30;103542.41;;;2.29
65316;BMP280;51920;53.952;10.292;2023-01-24T01:28:57;103540.63;;;2.35
65316;BMP280;51920;53.952;10.292;2023-01-24T01:31:22;103536.59;;;2.32
65316;BMP280;51920;53.952;10.292;2023-01-24T01:33:47;103553.81;;;2.41
65316;BMP280;51920;53.952;10.292;2023-01-24T01:36:13;103541.44;;;2.35
65316;BMP280;51920;53.952;10.292;2023-01-24T01:38:38;103538.19;;;2.33
65316;BMP280;51920;53.952;10.292;2023-01-24T01:41:04;103551.66;;;2.38
65316;BMP280;51920;53.952;10.292;2023-01-24T01:43:30;103546.03;;;2.40
65316;BMP280;51920;53.952;10.292;2023-01-24T01:48:37;103533.41;;;2.35
65316;BMP280;51920;53.952;10.292;2023-01-24T01:51:16;103543.63;;;2.38
65316;BMP280;51920;53.952;10.292;2023-01-24T01:53:53;103550.50;;;2.34
65316;BMP280;51920;53.952;10.292;2023-01-24T01:58:55;103537.91;;;2.29
65316;BMP280;51920;53.952;10.292;2023-01-24T02:01:22;103541.66;;;2.34
65316;BMP280;51920;53.952;10.292;2023-01-24T02:03:53;103539.50;;;2.30
65316;BMP280;51920;53.952;10.292;2023-01-24T02:06:38;103539.78;;;2.34
65316;BMP280;51920;53.952;10.292;2023-01-24T02:09:07;103540.34;;;2.31
65316;BMP280;51920;53.952;10.292;2023-01-24T02:11:34;103520.91;;;2.19
65316;BMP280;51920;53.952;10.292;2023-01-24T02:14:03;103538.75;;;2.35
65316;BMP280;51920;53.952;10.292;2023-01-24T02:16:47;103526.31;;;2.24
65316;BMP280;51920;53.952;10.292;2023-01-24T02:19:46;103538.72;;;2.30
65316;BMP280;51920;53.952;10.292;2023-01-24T02:24:55;103545.38;;;2.33
65316;BMP280;51920;53.952;10.292;2023-01-24T02:27:24;103533.59;;;2.28
65316;BMP280;51920;53.952;10.292;2023-01-24T02:29:49;103528.41;;;2.22
65316;BMP280;51920;53.952;10.292;2023-01-24T02:32:15;103545.16;;;2.34
65316;BMP280;51920;53.952;10.292;2023-01-24T02:34:42;103541.38;;;2.30
65316;BMP280;51920;53.952;10.292;2023-01-24T02:37:12;103551.56;;;2.33
65316;BMP280;51920;53.952;10.292;2023-01-24T02:39:47;103553.41;;;2.33
65316;BMP280;51920;53.952;10.292;2023-01-24T02:42:17;103541.88;;;2.27
65316;BMP280;51920;53.952;10.292;2023-01-24T02:44:54;103547.53;;;2.30
65316;BMP280;51920;53.952;10.292;2023-01-24T02:47:26;103553.97;;;2.29
65316;BMP280;51920;53.952;10.292;2023-01-24T02:49:58;103516.19;;;2.09
65316;BMP280;51920;53.952;10.292;2023-01-24T02:52:24;103546.41;;;2.26
65316;BMP280;51920;53.952;10.292;2023-01-24T02:55:08;103550.41;;;2.24
65316;BMP280;51920;53.952;10.292;2023-01-24T02:57:33;103552.31;;;2.28
65316;BMP280;51920;53.952;10.292;2023-01-24T03:00:17;103552.09;;;2.30
65316;BMP280;51920;53.952;10.292;2023-01-24T03:02:43;103560.91;;;2.30
65316;BMP280;51920;53.952;10.292;2023-01-24T03:05:09;103566.25;;;2.30
65316;BMP280;51920;53.952;10.292;2023-01-24T03:07:35;103559.78;;;2.26
65316;BMP280;51920;53.952;10.292;2023-01-24T03:10:12;103564.91;;;2.28
65316;BMP280;51920;53.952;10.292;2023-01-24T03:12:38;103572.13;;;2.27
65316;BMP280;51920;53.952;10.292;2023-01-24T03:15:23;103565.94;;;2.27
65316;BMP280;51920;53.952;10.292;2023-01-24T03:18:07;103563.81;;;2.29
65316;BMP280;51920;53.952;10.292;2023-01-24T03:20:52;103567.25;;;2.24
65316;BMP280;51920;53.952;10.292;2023-01-24T03:23:36;103570.72;;;2.25
65316;BMP280;51920;53.952;10.292;2023-01-24T03:26:20;103557.91;;;2.27
65316;BMP280;51920;53.952;10.292;2023-01-24T03:29:06;103564.25;;;2.60
65316;BMP280;51920;53.952;10.292;2023-01-24T03:31:50;103554.03;;;2.40
65316;BMP280;51920;53.952;10.292;2023-01-24T03:34:38;103546.78;;;2.35
65316;BMP280;51920;53.952;10.292;2023-01-24T03:37:23;103560.66;;;2.32
65316;BMP280;51920;53.952;10.292;2023-01-24T03:40:12;103553.97;;;2.29
65316;BMP280;51920;53.952;10.292;2023-01-24T03:42:37;103558.59;;;2.39
65316;BMP280;51920;53.952;10.292;2023-01-24T03:45:23;103563.34;;;2.32
65316;BMP280;51920;53.952;10.292;2023-01-24T03:47:51;103563.81;;;2.29
65316;BMP280;51920;53.952;10.292;2023-01-24T03:50:24;103556.88;;;2.28
65316;BMP280;51920;53.952;10.292;2023-01-24T03:53:09;103562.78;;;2.30
65316;BMP280;51920;53.952;10.292;2023-01-24T03:55:34;103567.56;;;2.28
65316;BMP280;51920;53.952;10.292;2023-01-24T03:58:01;103560.81;;;2.25
65316;BMP280;51920;53.952;10.292;2023-01-24T04:00:27;103566.94;;;2.21
65316;BMP280;51920;53.952;10.292;2023-01-24T04:02:57;103556.06;;;2.10
65316;BMP280;51920;53.952;10.292;2023-01-24T04:05:23;103566.59;;;2.17
65316;BMP280;51920;53.952;10.292;2023-01-24T04:07:48;103564.66;;;2.13
65316;BMP280;51920;53.952;10.292;2023-01-24T04:10:14;103582.97;;;2.21
65316;BMP280;51920;53.952;10.292;2023-01-24T04:12:44;103582.41;;;2.19
65316;BMP280;51920;53.952;10.292;2023-01-24T04:15:16;103582.97;;;2.21
65316;BMP280;51920;53.952;10.292;2023-01-24T04:17:44;103567.16;;;2.19
65316;BMP280;51920;53.952;10.292;2023-01-24T04:20:12;103573.00;;;2.16
65316;BMP280;51920;53.952;10.292;2023-01-24T04:22:38;103582.50;;;2.24
65316;BMP280;51920;53.952;10.292;2023-01-24T04:25:03;103580.06;;;2.22
65316;BMP280;51920;53.952;10.292;2023-01-24T04:27:32;103580.53;;;2.19
65316;BMP280;51920;53.952;10.292;2023-01-24T04:30:07;103582.34;;;2.14
65316;BMP280;51920;53.952;10.292;2023-01-24T04:32:36;103584.03;;;2.20
65316;BMP280;51920;53.952;10.292;2023-01-24T04:35:10;103589.03;;;2.16
65316;BMP280;51920;53.952;10.292;2023-01-24T04:37:49;103569.75;;;2.14
65316;BMP280;51920;53.952;10.292;2023-01-24T04:40:22;103570.09;;;2.18
65316;BMP280;51920;53.952;10.292;2023-01-24T04:42:47;103574.88;;;2.16
65316;BMP280;51920;53.952;10.292;2023-01-24T04:45:13;103562.47;;;2.09
65316;BMP280;51920;53.952;10.292;2023-01-24T04:47:39;103579.41;;;2.15
65316;BMP280;51920;53.952;10.292;2023-01-24T04:50:05;103582.66;;;2.17
65316;BMP280;51920;53.952;10.292;2023-01-24T04:52:32;103575.69;;;2.16
65316;BMP280;51920;53.952;10.292;2023-01-24T04:55:04;103575.34;;;2.13
65316;BMP280;51920;53.952;10.292;2023-01-24T04:57:29;103555.75;;;2.07
65316;BMP280;51920;53.952;10.292;2023-01-24T04:59:55;103560.84;;;2.08
65316;BMP280;51920;53.952;10.292;2023-01-24T05:02:21;103564.09;;;2.10
65316;BMP280;51920;53.952;10.292;2023-01-24T05:04:47;103565.72;;;2.11
65316;BMP280;51920;53.952;10.292;2023-01-24T05:07:13;103578.09;;;2.18
65316;BMP280;51920;53.952;10.292;2023-01-24T05:09:41;103576.47;;;2.17
65316;BMP280;51920;53.952;10.292;2023-01-24T05:12:08;103571.63;;;2.14
65316;BMP280;51920;53.952;10.292;2023-01-24T05:14:33;103577.56;;;2.16
65316;BMP280;51920;53.952;10.292;2023-01-24T05:16:59;103570.00;;;2.13
65316;BMP280;51920;53.952;10.292;2023-01-24T05:19:24;103580.22;;;2.16
65316;BMP280;51920;53.952;10.292;2023-01-24T05:21:50;103578.03;;;2.13
65316;BMP280;51920;53.952;10.292;2023-01-24T05:24:16;103579.16;;;2.17
65316;BMP280;51920;53.952;10.292;2023-01-24T05:26:43;103575.69;;;2.16
65316;BMP280;51920;53.952;10.292;2023-01-24T05:29:10;103576.16;;;2.13
65316;BMP280;51920;53.952;10.292;2023-01-24T05:31:37;103569.34;;;2.05
65316;BMP280;51920;53.952;10.292;2023-01-24T05:34:03;103584.94;;;2.08
65316;BMP280;51920;53.952;10.292;2023-01-24T05:36:31;103575.84;;;2.09
65316;BMP280;51920;53.952;10.292;2023-01-24T05:38:56;103568.88;;;2.08
65316;BMP280;51920;53.952;10.292;2023-01-24T05:41:22;103577.56;;;2.16
65316;BMP280;51920;53.952;10.292;2023-01-24T05:43:50;103575.69;;;2.16
65316;BMP280;51920;53.952;10.292;2023-01-24T05:46:20;103582.19;;;2.20
65316;BMP280;51920;53.952;10.292;2023-01-24T05:48:59;103579.09;;;2.11
65316;BMP280;51920;53.952;10.292;2023-01-24T05:51:25;103573.00;;;2.16
65316;BMP280;51920;53.952;10.292;2023-01-24T05:53:51;103580.78;;;2.18
65316;BMP280;51920;53.952;10.292;2023-01-24T05:56:36;103585.41;;;2.22
65316;BMP280;51920;53.952;10.292;2023-01-24T05:59:02;103581.66;;;2.23
65316;BMP280;51920;53.952;10.292;2023-01-24T06:01:28;103591.56;;;2.23
65316;BMP280;51920;53.952;10.292;2023-01-24T06:03:54;103579.75;;;2.19
65316;BMP280;51920;53.952;10.292;2023-01-24T06:06:21;103580.38;;;2.26
65316;BMP280;51920;53.952;10.292;2023-01-24T06:08:48;103581.44;;;2.25
65316;BMP280;51920;53.952;10.292;2023-01-24T06:11:16;103583.31;;;2.24
65316;BMP280;51920;53.952;10.292;2023-01-24T06:13:44;103581.34;;;2.20
65316;BMP280;51920;53.952;10.292;2023-01-24T06:16:14;103580.22;;;2.16
65316;BMP280;51920;53.952;10.292;2023-01-24T06:18:40;103567.41;;;2.18
65316;BMP280;51920;53.952;10.292;2023-01-24T06:23:52;103579.56;;;2.08
65316;BMP280;51920;53.952;10.292;2023-01-24T06:26:18;103587.84;;;2.24
65316;BMP280;51920;53.952;10.292;2023-01-24T06:28:44;103591.09;;;2.26
65316;BMP280;51920;53.952;10.292;2023-01-24T06:37:21;103593.84;;;2.31
65316;BMP280;51920;53.952;10.292;2023-01-24T06:39:51;103597.16;;;2.21
65316;BMP280;51920;53.952;10.292;2023-01-24T06:42:21;103591.25;;;2.19
65316;BMP280;51920;53.952;10.292;2023-01-24T06:44:47;103607.84;;;2.21
65316;BMP280;51920;53.952;10.292;2023-01-24T06:47:13;103599.75;;;2.16
65316;BMP280;51920;53.952;10.292;2023-01-24T06:49:39;103597.53;;;2.13
65316;BMP280;51920;53.952;10.292;2023-01-24T06:52:05;103587.13;;;2.95
65316;BMP280;51920;53.952;10.292;2023-01-24T06:54:30;103598.16;;;2.76
65316;BMP280;51920;53.952;10.292;2023-01-24T06:56:56;103595.72;;;2.53
65316;BMP280;51920;53.952;10.292;2023-01-24T06:59:21;103597.97;;;2.61
65316;BMP280;51920;53.952;10.292;2023-01-24T07:01:50;103594.34;;;2.50
65316;BMP280;51920;53.952;10.292;2023-01-24T07:04:15;103600.28;;;2.35
65316;BMP280;51920;53.952;10.292;2023-01-24T07:06:41;103604.00;;;2.34
65316;BMP280;51920;53.952;10.292;2023-01-24T07:09:06;103614.41;;;2.30
65316;BMP280;51920;53.952;10.292;2023-01-24T07:11:32;103612.66;;;2.41
65316;BMP280;51920;53.952;10.292;2023-01-24T07:13:58;103615.34;;;2.41
65316;BMP280;51920;53.952;10.292;2023-01-24T07:16:23;103607.38;;;2.24
65316;BMP280;51920;53.952;10.292;2023-01-24T07:18:49;103621.00;;;2.23
65316;BMP280;51920;53.952;10.292;2023-01-24T07:21:14;103621.56;;;2.25
65316;BMP280;51920;53.952;10.292;2023-01-24T07:23:44;103631.22;;;2.26
65316;BMP280;51920;53.952;10.292;2023-01-24T07:26:10;103628.84;;;2.13
65316;BMP280;51920;53.952;10.292;2023-01-24T07:28:37;103631.50;;;2.13
65316;BMP280;51920;53.952;10.292;2023-01-24T07:31:03;103635.31;;;2.17
65316;BMP280;51920;53.952;10.292;2023-01-24T07:33:29;103634.75;;;2.15
65316;BMP280;51920;53.952;10.292;2023-01-24T07:35:54;103653.81;;;2.18
65316;BMP280;51920;53.952;10.292;2023-01-24T07:38:20;103652.19;;;2.17
65316;BMP280;51920;53.952;10.292;2023-01-24T07:40:45;103651.88;;;2.14
65316;BMP280;51920;53.952;10.292;2023-01-24T07:43:11;103651.38;;;2.17
65316;BMP280;51920;53.952;10.292;2023-01-24T07:45:36;103654.03;;;2.17
65316;BMP280;51920;53.952;10.292;2023-01-24T07:48:04;103665.34;;;2.19
65316;BMP280;51920;53.952;10.292;2023-01-24T07:50:29;103652.44;;;2.16
65316;BMP280;51920;53.952;10.292;2023-01-24T07:52:55;103661.59;;;2.20
65316;BMP280;51920;53.952;10.292;2023-01-24T07:55:22;103650.16;;;2.07
65316;BMP280;51920;53.952;10.292;2023-01-24T07:57:47;103650.72;;;2.09
65316;BMP280;51920;53.952;10.292;2023-01-24T08:00:13;103651.78;;;2.08
65316;BMP280;51920;53.952;10.292;2023-01-24T08:02:41;103652.34;;;2.10
65316;BMP280;51920;53.952;10.292;2023-01-24T08:05:07;103653.97;;;2.11
65316;BMP280;51920;53.952;10.292;2023-01-24T08:07:32;103653.47;;;2.15
65316;BMP280;51920;53.952;10.292;2023-01-24T08:09:57;103657.78;;;2.16
65316;BMP280;51920;53.952;10.292;2023-01-24T08:12:23;103663.13;;;2.16
65316;BMP280;51920;53.952;10.292;2023-01-24T08:14:49;103659.16;;;2.18
65316;BMP280;51920;53.952;10.292;2023-01-24T08:17:14;103649.75;;;2.16
65316;BMP280;51920;53.952;10.292;2023-01-24T08:19:39;103662.06;;;2.17
65316;BMP280;51920;53.952;10.292;2023-01-24T08:22:05;103659.34;;;2.11
65316;BMP280;51920;53.952;10.292;2023-01-24T08:24:31;103661.59;;;2.20
65316;BMP280;51920;53.952;10.292;2023-01-24T08:26:58;103665.34;;;2.19
65316;BMP280;51920;53.952;10.292;2023-01-24T08:29:24;103655.59;;;2.13
65316;BMP280;51920;53.952;10.292;2023-01-24T08:31:49;103657.88;;;2.21
65316;BMP280;51920;53.952;10.292;2023-01-24T08:34:15;103651.78;;;2.25
65316;BMP280;51920;53.952;10.292;2023-01-24T08:36:40;103663.88;;;2.28
65316;BMP280;51920;53.952;10.292;2023-01-24T08:39:05;103663.63;;;2.29
65316;BMP280;51920;53.952;10.292;2023-01-24T08:41:31;103662.31;;;2.32
65316;BMP280;51920;53.952;10.292;2023-01-24T08:43:56;103666.59;;;2.33
65316;BMP280;51920;53.952;10.292;2023-01-24T08:46:22;103645.31;;;2.21
65316;BMP280;51920;53.952;10.292;2023-01-24T08:48:47;103668.22;;;2.34
65316;BMP280;51920;53.952;10.292;2023-01-24T08:51:12;103665.72;;;2.44
65316;BMP280;51920;53.952;10.292;2023-01-24T08:53:38;103667.03;;;2.42
65316;BMP280;51920;53.952;10.292;2023-01-24T08:56:04;103668.88;;;2.41
65316;BMP280;51920;53.952;10.292;2023-01-24T08:58:30;103661.91;;;2.40
65316;BMP280;51920;53.952;10.292;2023-01-24T09:00:59;103674.22;;;2.41
65316;BMP280;51920;53.952;10.292;2023-01-24T09:03:25;103651.78;;;2.25
65316;BMP280;51920;53.952;10.292;2023-01-24T09:05:58;103683.56;;;2.39
65316;BMP280;51920;53.952;10.292;2023-01-24T09:08:24;103681.19;;;2.42
65316;BMP280;51920;53.952;10.292;2023-01-24T09:10:49;103684.34;;;2.39
65316;BMP280;51920;53.952;10.292;2023-01-24T09:13:15;103681.91;;;2.38
65316;BMP280;51920;53.952;10.292;2023-01-24T09:15:40;103685.44;;;2.38
65316;BMP280;51920;53.952;10.292;2023-01-24T09:18:06;103689.47;;;2.41
65316;BMP280;51920;53.952;10.292;2023-01-24T09:20:31;103684.91;;;2.41
65316;BMP280;51920;53.952;10.292;2023-01-24T09:22:57;103684.91;;;2.41
65316;BMP280;51920;53.952;10.292;2023-01-24T09:25:22;103688.75;;;2.45
65316;BMP280;51920;53.952;10.292;2023-01-24T09:27:55;103688.31;;;2.54
65316;BMP280;51920;53.952;10.292;2023-01-24T09:30:21;103693.19;;;2.57
65316;BMP280;51920;53.952;10.292;2023-01-24T09:32:48;103696.13;;;2.55
65316;BMP280;51920;53.952;10.292;2023-01-24T09:35:13;103690.28;;;2.58
65316;BMP280;51920;53.952;10.292;2023-01-24T09:37:39;103688.97;;;2.61
65316;BMP280;51920;53.952;10.292;2023-01-24T09:45:28;103686.66;;;2.69
65316;BMP280;51920;53.952;10.292;2023-01-24T09:47:59;103686.38;;;2.66
65316;BMP280;51920;53.952;10.292;2023-01-24T09:50:31;103681.63;;;2.73
65316;BMP280;51920;53.952;10.292;2023-01-24T09:52:57;103671.06;;;2.61
65316;BMP280;51920;53.952;10.292;2023-01-24T09:55:37;103681.69;;;2.56
65316;BMP280;51920;53.952;10.292;2023-01-24T09:58:13;103672.91;;;2.61
65316;BMP280;51920;53.952;10.292;2023-01-24T10:00:45;103674.06;;;2.65
65316;BMP280;51920;53.952;10.292;2023-01-24T10:03:21;103656.94;;;2.66
65316;BMP280;51920;53.952;10.292;2023-01-24T10:05:50;103670.47;;;2.59
65316;BMP280;51920;53.952;10.292;2023-01-24T10:08:33;103660.97;;;2.68
65316;BMP280;51920;53.952;10.292;2023-01-24T10:11:17;103675.03;;;2.59
65316;BMP280;51920;53.952;10.292;2023-01-24T10:20:11;103672.06;;;2.77
65316;BMP280;51920;53.952;10.292;2023-01-24T10:25:33;103668.25;;;2.73
65316;BMP280;51920;53.952;10.292;2023-01-24T10:28:01;103670.59;;;2.86
65316;BMP280;51920;53.952;10.292;2023-01-24T10:30:41;103666.13;;;2.75
65316;BMP280;51920;53.952;10.292;2023-01-24T10:33:14;103662.91;;;2.73
65316;BMP280;51920;53.952;10.292;2023-01-24T10:38:18;103657.84;;;2.38
65316;BMP280;51920;53.952;10.292;2023-01-24T10:40:56;103665.47;;;2.46
65316;BMP280;51920;53.952;10.292;2023-01-24T10:43:28;103662.13;;;2.56
65316;BMP280;51920;53.952;10.292;2023-01-24T10:48:50;103663.38;;;2.65
65316;BMP280;51920;53.952;10.292;2023-01-24T10:51:20;103656.78;;;2.56
65316;BMP280;51920;53.952;10.292;2023-01-24T10:53:46;103658.97;;;2.59
65316;BMP280;51920;53.952;10.292;2023-01-24T10:56:14;103658.41;;;2.57
65316;BMP280;51920;53.952;10.292;2023-01-24T11:01:25;103649.91;;;2.60
65316;BMP280;51920;53.952;10.292;2023-01-24T11:03:56;103652.34;;;2.61
65316;BMP280;51920;53.952;10.292;2023-01-24T11:06:24;103645.03;;;2.57
65316;BMP280;51920;53.952;10.292;2023-01-24T11:09:03;103642.44;;;2.62
65316;BMP280;51920;53.952;10.292;2023-01-24T11:11:31;103635.53;;;2.66
65316;BMP280;51920;53.952;10.292;2023-01-24T11:13:59;103639.88;;;2.72
65316;BMP280;51920;53.952;10.292;2023-01-24T11:16:42;103637.84;;;2.79
65316;BMP280;51920;53.952;10.292;2023-01-24T11:19:27;103638.06;;;2.78
65316;BMP280;51920;53.952;10.292;2023-01-24T11:21:55;103639.19;;;2.82
65316;BMP280;51920;53.952;10.292;2023-01-24T11:24:22;103634.59;;;2.77
65316;BMP280;51920;53.952;10.292;2023-01-24T11:27:13;103632.97;;;2.76
65316;BMP280;51920;53.952;10.292;2023-01-24T11:29:39;103629.47;;;2.76
65316;BMP280;51920;53.952;10.292;2023-01-24T11:32:29;103632.31;;;2.69
65316;BMP280;51920;53.952;10.292;2023-01-24T11:35:10;103634.16;;;2.63
65316;BMP280;51920;53.952;10.292;2023-01-24T11:40:38;103639.81;;;2.67
65316;BMP280;51920;53.952;10.292;2023-01-24T11:43:35;103641.13;;;2.64
65316;BMP280;51920;53.952;10.292;2023-01-24T11:46:29;103643.84;;;2.69
65316;BMP280;51920;53.952;10.292;2023-01-24T11:49:04;103635.56;;;2.71
65316;BMP280;51920;53.952;10.292;2023-01-24T12:08:00;103606.34;;;2.86
65316;BMP280;51920;53.952;10.292;2023-01-24T12:11:48;103598.28;;;2.86
65316;BMP280;51920;53.952;10.292;2023-01-24T12:13:44;103600.97;;;2.86
65316;BMP280;51920;53.952;10.292;2023-01-24T12:21:38;103583.09;;;2.92
65316;BMP280;51920;53.952;10.292;2023-01-24T12:24:20;103582.72;;;2.83
65316;BMP280;51920;53.952;10.292;2023-01-24T12:26:59;103578.16;;;3.06
65316;BMP280;51920;53.952;10.292;2023-01-24T12:37:57;103571.13;;;2.78
65316;BMP280;51920;53.952;10.292;2023-01-24T12:43:30;103578.41;;;2.82
65316;BMP280;51920;53.952;10.292;2023-01-24T12:46:30;103574.50;;;2.90
65316;BMP280;51920;53.952;10.292;2023-01-24T12:51:40;103570.03;;;2.96
65316;BMP280;51920;53.952;10.292;2023-01-24T12:54:28;103556.50;;;2.85
65316;BMP280;51920;53.952;10.292;2023-01-24T12:57:04;103558.00;;;2.76
65316;BMP280;51920;53.952;10.292;2023-01-24T12:59:33;103556.88;;;2.72
65316;BMP280;51920;53.952;10.292;2023-01-24T13:02:24;103556.31;;;2.70
65316;BMP280;51920;53.952;10.292;2023-01-24T13:10:16;103557.13;;;2.93
65316;BMP280;51920;53.952;10.292;2023-01-24T13:12:43;103561.72;;;2.75
65316;BMP280;51920;53.952;10.292;2023-01-24T13:20:51;103561.09;;;2.63
65316;BMP280;51920;53.952;10.292;2023-01-24T13:31:28;103562.94;;;2.62
65316;BMP280;51920;53.952;10.292;2023-01-24T13:34:05;103552.22;;;2.62
65316;BMP280;51920;53.952;10.292;2023-01-24T13:36:36;103553.97;;;2.52
65316;BMP280;51920;53.952;10.292;2023-01-24T13:39:04;103552.28;;;2.45
65316;BMP280;51920;53.952;10.292;2023-01-24T13:44:03;103544.13;;;2.57
65316;BMP280;51920;53.952;10.292;2023-01-24T13:49:16;103539.47;;;2.47
65316;BMP280;51920;53.952;10.292;2023-01-24T13:51:45;103538.13;;;2.50
65316;BMP280;51920;53.952;10.292;2023-01-24T13:54:22;103530.34;;;2.48
65316;BMP280;51920;53.952;10.292;2023-01-24T13:57:21;103532.47;;;2.46
65316;BMP280;51920;53.952;10.292;2023-01-24T14:10:32;103536.34;;;2.56
65316;BMP280;51920;53.952;10.292;2023-01-24T14:12:59;103527.44;;;2.50
65316;BMP280;51920;53.952;10.292;2023-01-24T14:17:51;103532.00;;;2.49
65316;BMP280;51920;53.952;10.292;2023-01-24T14:20:33;103527.69;;;2.48
65316;BMP280;51920;53.952;10.292;2023-01-24T14:23:03;103526.22;;;2.58
65316;BMP280;51920;53.952;10.292;2023-01-24T14:25:43;103528.28;;;2.50
65316;BMP280;51920;53.952;10.292;2023-01-24T14:28:36;103523.41;;;2.47
65316;BMP280;51920;53.952;10.292;2023-01-24T14:31:20;103520.09;;;2.62
65316;BMP280;51920;53.952;10.292;2023-01-24T14:36:33;103522.72;;;2.57
65316;BMP280;51920;53.952;10.292;2023-01-24T14:39:19;103523.22;;;2.54
65316;BMP280;51920;53.952;10.292;2023-01-24T14:41:51;103520.47;;;2.49
65316;BMP280;51920;53.952;10.292;2023-01-24T14:47:19;103518.53;;;2.44
65316;BMP280;51920;53.952;10.292;2023-01-24T14:49:54;103514.38;;;2.32
65316;BMP280;51920;53.952;10.292;2023-01-24T14:52:25;103512.31;;;2.39
65316;BMP280;51920;53.952;10.292;2023-01-24T14:57:21;103507.28;;;2.42
65316;BMP280;51920;53.952;10.292;2023-01-24T15:00:01;103510.44;;;2.39
65316;BMP280;51920;53.952;10.292;2023-01-24T15:02:27;103505.09;;;2.39
65316;BMP280;51920;53.952;10.292;2023-01-24T15:04:52;103508.31;;;2.41
65316;BMP280;51920;53.952;10.292;2023-01-24T15:07:18;103507.22;;;2.37
65316;BMP280;51920;53.952;10.292;2023-01-24T15:09:43;103513.88;;;2.35
65316;BMP280;51920;53.952;10.292;2023-01-24T15:12:29;103511.75;;;2.37
65316;BMP280;51920;53.952;10.292;2023-01-24T15:14:56;103506.09;;;2.33
65316;BMP280;51920;53.952;10.292;2023-01-24T15:17:27;103514.63;;;2.30
65316;BMP280;51920;53.952;10.292;2023-01-24T15:20:18;103510.31;;;2.29
65316;BMP280;51920;53.952;10.292;2023-01-24T15:22:41;103511.63;;;2.26
65316;BMP280;51920;53.952;10.292;2023-01-24T15:27:47;103513.50;;;2.26
65316;BMP280;51920;53.952;10.292;2023-01-24T15:30:15;103516.66;;;2.23
65316;BMP280;51920;53.952;10.292;2023-01-24T15:33:00;103516.59;;;2.40
65316;BMP280;51920;53.952;10.292;2023-01-24T15:38:11;103511.91;;;2.47
65316;BMP280;51920;53.952;10.292;2023-01-24T15:40:46;103510.44;;;2.39
65316;BMP280;51920;53.952;10.292;2023-01-24T15:43:17;103517.34;;;2.35
65316;BMP280;51920;53.952;10.292;2023-01-24T15:46:03;103509.84;;;2.32
65316;BMP280;51920;53.952;10.292;2023-01-24T15:49:01;103507.41;;;2.30
65316;BMP280;51920;53.952;10.292;2023-01-24T15:51:33;103499.31;;;2.25
65316;BMP280;51920;53.952;10.292;2023-01-24T15:53:59;103505.09;;;2.39
65316;BMP280;51920;53.952;10.292;2023-01-24T15:56:26;103501.84;;;2.37
65316;BMP280;51920;53.952;10.292;2023-01-24T15:58:52;103504.16;;;2.28
65316;BMP280;51920;53.952;10.292;2023-01-24T16:01:18;103496.91;;;2.24
65316;BMP280;51920;53.952;10.292;2023-01-24T16:03:43;103507.00;;;2.22
65316;BMP280;51920;53.952;10.292;2023-01-24T16:06:09;103513.03;;;2.34
65316;BMP280;51920;53.952;10.292;2023-01-24T16:08:34;103508.25;;;2.31
65316;BMP280;51920;53.952;10.292;2023-01-24T16:11:00;103508.25;;;2.31
65316;BMP280;51920;53.952;10.292;2023-01-24T16:13:31;103507.84;;;2.22
65316;BMP280;51920;53.952;10.292;2023-01-24T16:16:00;103501.03;;;2.15
65316;BMP280;51920;53.952;10.292;2023-01-24T16:18:26;103501.78;;;2.10
65316;BMP280;51920;53.952;10.292;2023-01-24T16:20:52;103502.03;;;2.08
65316;BMP280;51920;53.952;10.292;2023-01-24T16:23:18;103498.88;;;2.11